Terminal Aerodrome Forecast
Issued by NWS

Current Version | Previous Version | Text Only | Print | Product List | Glossary On
Versions: 1 2 3 4 5 6 7 8 9 10 11 12 13 14 15 16 17 18 19 20 21 22 23 24 25 26 27 28 29
000
FTUS41 KOKX 050528
TAFHPN
TAF
KHPN 050528Z 0506/0606 10008G15KT 2SM BR OVC006
     FM050700 07008G15KT 1SM -RA BR OVC002
     FM051300 08011KT 2SM RA BR OVC002
     FM051700 07009KT 2SM -RA BR OVC002
     FM052200 11008KT 2SM BR OVC004
     FM060200 05004KT 2SM BR OVC005
     AMD NOT SKED=

USA.gov is the U.S. government's official web portal to all federal, state and local government web resources and services.